sensor_id;sensor_type;location;lat;lon;timestamp;P1;durP1;ratioP1;P2;durP2;ratioP2
3141;SDS011;1581;51.568;6.998;2023-06-19T00:01:47;6.43;;;4.18;;
3141;SDS011;1581;51.568;6.998;2023-06-19T00:04:15;5.25;;;4.07;;
3141;SDS011;1581;51.568;6.998;2023-06-19T00:06:44;4.40;;;4.00;;
3141;SDS011;1581;51.568;6.998;2023-06-19T00:09:15;4.78;;;4.03;;
3141;SDS011;1581;51.568;6.998;2023-06-19T00:11:43;4.65;;;4.18;;
3141;SDS011;1581;51.568;6.998;2023-06-19T00:14:11;4.78;;;4.38;;
3141;SDS011;1581;51.568;6.998;2023-06-19T00:16:39;4.88;;;4.30;;
3141;SDS011;1581;51.568;6.998;2023-06-19T00:19:08;5.00;;;4.10;;
3141;SDS011;1581;51.568;6.998;2023-06-19T00:21:37;6.35;;;4.10;;
3141;SDS011;1581;51.568;6.998;2023-06-19T00:24:09;6.95;;;4.93;;
3141;SDS011;1581;51.568;6.998;2023-06-19T00:26:39;9.63;;;3.47;;
3141;SDS011;1581;51.568;6.998;2023-06-19T00:29:08;5.43;;;4.93;;
3141;SDS011;1581;51.568;6.998;2023-06-19T00:31:36;5.78;;;3.83;;
3141;SDS011;1581;51.568;6.998;2023-06-19T00:34:04;4.43;;;3.80;;
3141;SDS011;1581;51.568;6.998;2023-06-19T00:36:33;5.65;;;5.05;;
3141;SDS011;1581;51.568;6.998;2023-06-19T00:39:05;4.40;;;3.97;;
3141;SDS011;1581;51.568;6.998;2023-06-19T00:41:34;4.95;;;4.53;;
3141;SDS011;1581;51.568;6.998;2023-06-19T00:44:11;5.00;;;4.32;;
3141;SDS011;1581;51.568;6.998;2023-06-19T00:46:40;4.75;;;4.22;;
3141;SDS011;1581;51.568;6.998;2023-06-19T00:49:11;4.53;;;4.13;;
3141;SDS011;1581;51.568;6.998;2023-06-19T00:51:41;5.18;;;4.55;;
3141;SDS011;1581;51.568;6.998;2023-06-19T00:54:12;4.72;;;4.03;;
3141;SDS011;1581;51.568;6.998;2023-06-19T00:56:42;7.88;;;4.80;;
3141;SDS011;1581;51.568;6.998;2023-06-19T00:59:14;4.80;;;4.40;;
3141;SDS011;1581;51.568;6.998;2023-06-19T01:01:44;4.93;;;4.43;;
3141;SDS011;1581;51.568;6.998;2023-06-19T01:04:13;6.05;;;4.88;;
3141;SDS011;1581;51.568;6.998;2023-06-19T01:06:43;6.32;;;4.75;;
3141;SDS011;1581;51.568;6.998;2023-06-19T01:09:23;4.90;;;4.40;;
3141;SDS011;1581;51.568;6.998;2023-06-19T01:11:58;4.97;;;4.47;;
3141;SDS011;1581;51.568;6.998;2023-06-19T01:14:39;4.78;;;4.30;;
3141;SDS011;1581;51.568;6.998;2023-06-19T01:17:16;5.38;;;4.88;;
3141;SDS011;1581;51.568;6.998;2023-06-19T01:19:46;5.53;;;4.82;;
3141;SDS011;1581;51.568;6.998;2023-06-19T01:22:23;6.20;;;4.47;;
3141;SDS011;1581;51.568;6.998;2023-06-19T01:24:53;6.97;;;5.05;;
3141;SDS011;1581;51.568;6.998;2023-06-19T01:27:22;5.13;;;4.63;;
3141;SDS011;1581;51.568;6.998;2023-06-19T01:29:56;4.82;;;4.25;;
3141;SDS011;1581;51.568;6.998;2023-06-19T01:32:26;4.75;;;4.35;;
3141;SDS011;1581;51.568;6.998;2023-06-19T01:35:03;5.25;;;4.75;;
3141;SDS011;1581;51.568;6.998;2023-06-19T01:37:36;7.55;;;5.00;;
3141;SDS011;1581;51.568;6.998;2023-06-19T01:40:07;6.10;;;4.63;;
3141;SDS011;1581;51.568;6.998;2023-06-19T01:42:37;5.57;;;5.05;;
3141;SDS011;1581;51.568;6.998;2023-06-19T01:45:07;6.63;;;4.57;;
3141;SDS011;1581;51.568;6.998;2023-06-19T01:47:38;5.15;;;4.30;;
3141;SDS011;1581;51.568;6.998;2023-06-19T01:50:07;5.68;;;5.10;;
3141;SDS011;1581;51.568;6.998;2023-06-19T01:52:38;5.28;;;4.78;;
3141;SDS011;1581;51.568;6.998;2023-06-19T01:55:08;5.75;;;5.25;;
3141;SDS011;1581;51.568;6.998;2023-06-19T01:57:36;5.07;;;4.57;;
3141;SDS011;1581;51.568;6.998;2023-06-19T02:00:05;6.10;;;5.10;;
3141;SDS011;1581;51.568;6.998;2023-06-19T02:02:35;6.65;;;4.93;;
3141;SDS011;1581;51.568;6.998;2023-06-19T02:05:04;5.10;;;4.60;;
3141;SDS011;1581;51.568;6.998;2023-06-19T02:07:33;11.27;;;4.78;;
3141;SDS011;1581;51.568;6.998;2023-06-19T02:10:02;4.90;;;4.40;;
3141;SDS011;1581;51.568;6.998;2023-06-19T02:12:31;5.63;;;5.05;;
3141;SDS011;1581;51.568;6.998;2023-06-19T02:14:59;4.55;;;4.13;;
3141;SDS011;1581;51.568;6.998;2023-06-19T02:17:32;5.45;;;4.22;;
3141;SDS011;1581;51.568;6.998;2023-06-19T02:20:04;6.15;;;4.80;;
3141;SDS011;1581;51.568;6.998;2023-06-19T02:22:37;5.88;;;4.45;;
3141;SDS011;1581;51.568;6.998;2023-06-19T02:25:09;8.18;;;4.75;;
3141;SDS011;1581;51.568;6.998;2023-06-19T02:27:37;5.78;;;5.18;;
3141;SDS011;1581;51.568;6.998;2023-06-19T02:30:06;4.85;;;4.45;;
3141;SDS011;1581;51.568;6.998;2023-06-19T02:32:35;6.93;;;5.10;;
3141;SDS011;1581;51.568;6.998;2023-06-19T02:35:04;5.30;;;4.55;;
3141;SDS011;1581;51.568;6.998;2023-06-19T02:37:35;5.68;;;5.05;;
3141;SDS011;1581;51.568;6.998;2023-06-19T02:40:04;4.50;;;4.10;;
3141;SDS011;1581;51.568;6.998;2023-06-19T02:42:37;5.55;;;4.82;;
3141;SDS011;1581;51.568;6.998;2023-06-19T02:45:06;7.43;;;5.40;;
3141;SDS011;1581;51.568;6.998;2023-06-19T02:47:35;6.78;;;5.22;;
3141;SDS011;1581;51.568;6.998;2023-06-19T02:50:04;5.60;;;4.97;;
3141;SDS011;1581;51.568;6.998;2023-06-19T02:52:35;4.20;;;3.90;;
3141;SDS011;1581;51.568;6.998;2023-06-19T02:55:04;4.72;;;4.32;;
3141;SDS011;1581;51.568;6.998;2023-06-19T02:57:33;6.05;;;5.28;;
3141;SDS011;1581;51.568;6.998;2023-06-19T03:00:03;4.63;;;3.88;;
3141;SDS011;1581;51.568;6.998;2023-06-19T03:02:34;4.45;;;4.05;;
3141;SDS011;1581;51.568;6.998;2023-06-19T03:05:02;5.95;;;4.30;;
3141;SDS011;1581;51.568;6.998;2023-06-19T03:07:32;5.53;;;4.88;;
3141;SDS011;1581;51.568;6.998;2023-06-19T03:10:00;4.70;;;4.30;;
3141;SDS011;1581;51.568;6.998;2023-06-19T03:12:28;4.25;;;3.95;;
3141;SDS011;1581;51.568;6.998;2023-06-19T03:17:29;5.65;;;4.15;;
3141;SDS011;1581;51.568;6.998;2023-06-19T03:19:57;7.55;;;4.78;;
3141;SDS011;1581;51.568;6.998;2023-06-19T03:22:25;5.40;;;4.57;;
3141;SDS011;1581;51.568;6.998;2023-06-19T03:24:53;5.45;;;4.43;;
3141;SDS011;1581;51.568;6.998;2023-06-19T03:27:26;4.32;;;3.92;;
3141;SDS011;1581;51.568;6.998;2023-06-19T03:29:55;7.43;;;4.15;;
3141;SDS011;1581;51.568;6.998;2023-06-19T03:32:23;7.38;;;4.45;;
3141;SDS011;1581;51.568;6.998;2023-06-19T03:34:54;7.10;;;4.25;;
3141;SDS011;1581;51.568;6.998;2023-06-19T03:37:23;5.32;;;3.95;;
3141;SDS011;1581;51.568;6.998;2023-06-19T03:39:51;3.92;;;3.38;;
3141;SDS011;1581;51.568;6.998;2023-06-19T03:42:19;8.10;;;4.53;;
3141;SDS011;1581;51.568;6.998;2023-06-19T03:44:48;10.00;;;4.18;;
3141;SDS011;1581;51.568;6.998;2023-06-19T03:47:16;5.65;;;4.38;;
3141;SDS011;1581;51.568;6.998;2023-06-19T03:49:56;4.90;;;4.35;;
3141;SDS011;1581;51.568;6.998;2023-06-19T03:52:26;4.07;;;3.65;;
3141;SDS011;1581;51.568;6.998;2023-06-19T03:54:55;4.85;;;3.78;;
3141;SDS011;1581;51.568;6.998;2023-06-19T03:57:23;5.57;;;3.58;;
3141;SDS011;1581;51.568;6.998;2023-06-19T03:59:51;4.05;;;3.65;;
3141;SDS011;1581;51.568;6.998;2023-06-19T04:02:20;4.65;;;3.45;;
3141;SDS011;1581;51.568;6.998;2023-06-19T04:04:48;5.68;;;3.72;;
3141;SDS011;1581;51.568;6.998;2023-06-19T04:07:19;5.85;;;4.07;;
3141;SDS011;1581;51.568;6.998;2023-06-19T04:09:47;9.98;;;3.88;;
3141;SDS011;1581;51.568;6.998;2023-06-19T04:12:15;5.15;;;3.20;;
3141;SDS011;1581;51.568;6.998;2023-06-19T04:14:43;4.20;;;2.80;;
3141;SDS011;1581;51.568;6.998;2023-06-19T04:17:10;7.15;;;3.60;;
3141;SDS011;1581;51.568;6.998;2023-06-19T04:19:39;2.92;;;2.67;;
3141;SDS011;1581;51.568;6.998;2023-06-19T04:22:09;2.58;;;2.38;;
3141;SDS011;1581;51.568;6.998;2023-06-19T04:24:38;4.80;;;2.80;;
3141;SDS011;1581;51.568;6.998;2023-06-19T04:27:07;7.85;;;3.40;;
3141;SDS011;1581;51.568;6.998;2023-06-19T04:29:34;3.45;;;3.15;;
3141;SDS011;1581;51.568;6.998;2023-06-19T04:32:04;3.90;;;3.22;;
3141;SDS011;1581;51.568;6.998;2023-06-19T04:34:36;7.47;;;3.88;;
3141;SDS011;1581;51.568;6.998;2023-06-19T04:37:05;3.78;;;3.35;;
3141;SDS011;1581;51.568;6.998;2023-06-19T04:39:33;4.22;;;2.67;;
3141;SDS011;1581;51.568;6.998;2023-06-19T04:42:04;3.65;;;3.10;;
3141;SDS011;1581;51.568;6.998;2023-06-19T04:44:33;3.65;;;3.25;;
3141;SDS011;1581;51.568;6.998;2023-06-19T04:47:02;3.30;;;3.00;;
3141;SDS011;1581;51.568;6.998;2023-06-19T04:49:30;4.60;;;3.25;;
3141;SDS011;1581;51.568;6.998;2023-06-19T04:51:59;5.30;;;2.97;;
3141;SDS011;1581;51.568;6.998;2023-06-19T04:54:28;9.70;;;3.63;;
3141;SDS011;1581;51.568;6.998;2023-06-19T04:56:58;4.13;;;3.53;;
3141;SDS011;1581;51.568;6.998;2023-06-19T04:59:28;4.53;;;3.78;;
3141;SDS011;1581;51.568;6.998;2023-06-19T05:02:03;4.40;;;3.22;;
3141;SDS011;1581;51.568;6.998;2023-06-19T05:04:32;3.75;;;3.33;;
3141;SDS011;1581;51.568;6.998;2023-06-19T05:07:01;6.93;;;2.88;;
3141;SDS011;1581;51.568;6.998;2023-06-19T05:09:29;7.55;;;3.20;;
3141;SDS011;1581;51.568;6.998;2023-06-19T05:11:58;2.05;;;1.90;;
3141;SDS011;1581;51.568;6.998;2023-06-19T05:14:29;2.80;;;2.17;;
3141;SDS011;1581;51.568;6.998;2023-06-19T05:17:13;4.35;;;2.28;;
3141;SDS011;1581;51.568;6.998;2023-06-19T05:19:42;1.90;;;1.70;;
3141;SDS011;1581;51.568;6.998;2023-06-19T05:22:14;3.78;;;2.17;;
3141;SDS011;1581;51.568;6.998;2023-06-19T05:24:44;3.22;;;2.13;;
3141;SDS011;1581;51.568;6.998;2023-06-19T05:27:12;4.35;;;2.42;;
3141;SDS011;1581;51.568;6.998;2023-06-19T05:29:42;2.92;;;2.63;;
3141;SDS011;1581;51.568;6.998;2023-06-19T05:32:10;3.10;;;2.80;;
3141;SDS011;1581;51.568;6.998;2023-06-19T05:34:39;4.60;;;3.13;;
3141;SDS011;1581;51.568;6.998;2023-06-19T05:37:07;4.25;;;3.00;;
3141;SDS011;1581;51.568;6.998;2023-06-19T05:39:36;4.65;;;2.33;;
3141;SDS011;1581;51.568;6.998;2023-06-19T05:42:10;2.78;;;2.58;;
3141;SDS011;1581;51.568;6.998;2023-06-19T05:44:39;3.05;;;2.70;;
3141;SDS011;1581;51.568;6.998;2023-06-19T05:47:08;3.58;;;2.97;;
3141;SDS011;1581;51.568;6.998;2023-06-19T05:49:36;6.05;;;3.38;;
3141;SDS011;1581;51.568;6.998;2023-06-19T05:52:07;4.40;;;2.92;;
3141;SDS011;1581;51.568;6.998;2023-06-19T05:54:36;3.83;;;3.42;;
3141;SDS011;1581;51.568;6.998;2023-06-19T05:57:10;2.70;;;2.50;;
3141;SDS011;1581;51.568;6.998;2023-06-19T05:59:44;5.53;;;2.38;;
3141;SDS011;1581;51.568;6.998;2023-06-19T06:02:16;3.40;;;2.85;;
3141;SDS011;1581;51.568;6.998;2023-06-19T06:04:45;3.20;;;2.53;;
3141;SDS011;1581;51.568;6.998;2023-06-19T06:07:14;4.63;;;3.25;;
3141;SDS011;1581;51.568;6.998;2023-06-19T06:09:47;6.55;;;3.20;;
3141;SDS011;1581;51.568;6.998;2023-06-19T06:12:15;6.43;;;2.92;;
3141;SDS011;1581;51.568;6.998;2023-06-19T06:14:44;2.85;;;2.58;;
3141;SDS011;1581;51.568;6.998;2023-06-19T06:17:13;6.25;;;3.08;;
3141;SDS011;1581;51.568;6.998;2023-06-19T06:19:43;3.67;;;2.05;;
3141;SDS011;1581;51.568;6.998;2023-06-19T06:22:11;3.55;;;2.50;;
3141;SDS011;1581;51.568;6.998;2023-06-19T06:24:40;3.15;;;2.30;;
3141;SDS011;1581;51.568;6.998;2023-06-19T06:27:08;7.80;;;2.97;;
3141;SDS011;1581;51.568;6.998;2023-06-19T06:29:37;11.75;;;2.40;;
3141;SDS011;1581;51.568;6.998;2023-06-19T06:32:06;2.08;;;1.80;;
3141;SDS011;1581;51.568;6.998;2023-06-19T06:34:37;2.45;;;1.98;;
3141;SDS011;1581;51.568;6.998;2023-06-19T06:37:07;2.08;;;1.88;;
3141;SDS011;1581;51.568;6.998;2023-06-19T06:39:38;4.13;;;2.60;;
3141;SDS011;1581;51.568;6.998;2023-06-19T06:42:06;2.47;;;2.20;;
3141;SDS011;1581;51.568;6.998;2023-06-19T06:44:37;5.05;;;1.88;;
3141;SDS011;1581;51.568;6.998;2023-06-19T06:47:09;3.25;;;2.33;;
3141;SDS011;1581;51.568;6.998;2023-06-19T06:50:19;2.35;;;2.15;;
3141;SDS011;1581;51.568;6.998;2023-06-19T06:52:51;4.30;;;2.28;;
3141;SDS011;1581;51.568;6.998;2023-06-19T06:55:20;4.05;;;2.40;;
3141;SDS011;1581;51.568;6.998;2023-06-19T06:57:53;4.80;;;2.22;;
3141;SDS011;1581;51.568;6.998;2023-06-19T07:00:22;2.47;;;2.30;;
3141;SDS011;1581;51.568;6.998;2023-06-19T07:02:50;2.47;;;2.28;;
3141;SDS011;1581;51.568;6.998;2023-06-19T07:05:21;4.07;;;2.40;;
3141;SDS011;1581;51.568;6.998;2023-06-19T07:07:53;2.10;;;2.00;;
3141;SDS011;1581;51.568;6.998;2023-06-19T07:10:21;10.10;;;2.47;;
3141;SDS011;1581;51.568;6.998;2023-06-19T07:12:50;2.95;;;1.88;;
3141;SDS011;1581;51.568;6.998;2023-06-19T07:15:18;4.10;;;2.45;;
3141;SDS011;1581;51.568;6.998;2023-06-19T07:17:48;4.30;;;2.28;;
3141;SDS011;1581;51.568;6.998;2023-06-19T07:20:17;2.85;;;2.45;;
3141;SDS011;1581;51.568;6.998;2023-06-19T07:22:45;3.70;;;2.13;;
3141;SDS011;1581;51.568;6.998;2023-06-19T07:25:15;4.10;;;2.55;;
3141;SDS011;1581;51.568;6.998;2023-06-19T07:27:44;2.70;;;2.20;;
3141;SDS011;1581;51.568;6.998;2023-06-19T07:30:12;2.70;;;2.13;;
3141;SDS011;1581;51.568;6.998;2023-06-19T07:32:41;3.35;;;2.70;;
3141;SDS011;1581;51.568;6.998;2023-06-19T07:35:09;4.20;;;2.53;;
3141;SDS011;1581;51.568;6.998;2023-06-19T07:37:39;5.75;;;2.50;;
3141;SDS011;1581;51.568;6.998;2023-06-19T07:40:08;3.55;;;2.20;;
3141;SDS011;1581;51.568;6.998;2023-06-19T07:42:39;3.75;;;2.50;;
3141;SDS011;1581;51.568;6.998;2023-06-19T07:45:08;8.45;;;2.40;;
3141;SDS011;1581;51.568;6.998;2023-06-19T07:47:38;7.60;;;2.65;;
3141;SDS011;1581;51.568;6.998;2023-06-19T07:50:07;2.60;;;2.40;;
3141;SDS011;1581;51.568;6.998;2023-06-19T07:52:36;3.80;;;2.42;;
3141;SDS011;1581;51.568;6.998;2023-06-19T07:55:04;3.47;;;2.92;;
3141;SDS011;1581;51.568;6.998;2023-06-19T07:57:33;8.13;;;2.58;;
3141;SDS011;1581;51.568;6.998;2023-06-19T08:00:04;2.83;;;2.42;;
3141;SDS011;1581;51.568;6.998;2023-06-19T08:02:37;2.17;;;2.08;;
3141;SDS011;1581;51.568;6.998;2023-06-19T08:05:06;2.80;;;2.53;;
3141;SDS011;1581;51.568;6.998;2023-06-19T08:07:36;2.75;;;2.47;;
3141;SDS011;1581;51.568;6.998;2023-06-19T08:10:05;2.85;;;2.33;;
3141;SDS011;1581;51.568;6.998;2023-06-19T08:12:35;4.38;;;2.85;;
3141;SDS011;1581;51.568;6.998;2023-06-19T08:15:07;2.85;;;2.17;;
3141;SDS011;1581;51.568;6.998;2023-06-19T08:17:39;3.97;;;2.67;;
3141;SDS011;1581;51.568;6.998;2023-06-19T08:20:10;2.88;;;2.60;;
3141;SDS011;1581;51.568;6.998;2023-06-19T08:22:42;11.60;;;2.85;;
3141;SDS011;1581;51.568;6.998;2023-06-19T08:25:13;5.55;;;2.17;;
3141;SDS011;1581;51.568;6.998;2023-06-19T08:27:43;8.75;;;2.33;;
3141;SDS011;1581;51.568;6.998;2023-06-19T08:30:15;3.75;;;2.70;;
3141;SDS011;1581;51.568;6.998;2023-06-19T08:32:45;2.15;;;2.05;;
3141;SDS011;1581;51.568;6.998;2023-06-19T08:35:15;4.15;;;2.13;;
3141;SDS011;1581;51.568;6.998;2023-06-19T08:37:44;3.55;;;2.38;;
3141;SDS011;1581;51.568;6.998;2023-06-19T08:40:13;3.72;;;2.30;;
3141;SDS011;1581;51.568;6.998;2023-06-19T08:42:41;3.22;;;2.05;;
3141;SDS011;1581;51.568;6.998;2023-06-19T08:45:10;3.58;;;2.42;;
3141;SDS011;1581;51.568;6.998;2023-06-19T08:47:40;2.55;;;2.20;;
3141;SDS011;1581;51.568;6.998;2023-06-19T08:50:09;6.40;;;2.10;;
3141;SDS011;1581;51.568;6.998;2023-06-19T08:52:37;3.25;;;2.35;;
3141;SDS011;1581;51.568;6.998;2023-06-19T08:55:06;2.65;;;1.98;;
3141;SDS011;1581;51.568;6.998;2023-06-19T08:57:37;1.77;;;1.67;;
3141;SDS011;1581;51.568;6.998;2023-06-19T09:00:07;2.30;;;2.10;;
3141;SDS011;1581;51.568;6.998;2023-06-19T09:02:37;3.75;;;1.92;;
3141;SDS011;1581;51.568;6.998;2023-06-19T09:05:12;2.65;;;2.17;;
3141;SDS011;1581;51.568;6.998;2023-06-19T09:07:42;4.10;;;1.85;;
3141;SDS011;1581;51.568;6.998;2023-06-19T09:10:13;3.10;;;1.85;;
3141;SDS011;1581;51.568;6.998;2023-06-19T09:12:43;4.60;;;1.85;;
3141;SDS011;1581;51.568;6.998;2023-06-19T09:15:23;2.45;;;1.95;;
3141;SDS011;1581;51.568;6.998;2023-06-19T09:18:06;2.17;;;1.90;;
3141;SDS011;1581;51.568;6.998;2023-06-19T09:20:37;12.18;;;3.50;;
3141;SDS011;1581;51.568;6.998;2023-06-19T09:23:10;2.78;;;1.80;;
3141;SDS011;1581;51.568;6.998;2023-06-19T09:25:46;4.43;;;2.05;;
3141;SDS011;1581;51.568;6.998;2023-06-19T09:28:17;2.28;;;2.03;;
3141;SDS011;1581;51.568;6.998;2023-06-19T09:30:53;4.10;;;2.53;;
3141;SDS011;1581;51.568;6.998;2023-06-19T09:36:21;2.03;;;1.60;;
3141;SDS011;1581;51.568;6.998;2023-06-19T09:38:51;3.13;;;2.60;;
3141;SDS011;1581;51.568;6.998;2023-06-19T09:41:22;3.90;;;2.50;;
3141;SDS011;1581;51.568;6.998;2023-06-19T09:43:53;2.83;;;2.60;;
3141;SDS011;1581;51.568;6.998;2023-06-19T09:46:26;12.40;;;5.10;;
3141;SDS011;1581;51.568;6.998;2023-06-19T09:49:01;5.13;;;3.10;;
3141;SDS011;1581;51.568;6.998;2023-06-19T09:51:32;5.13;;;2.90;;
3141;SDS011;1581;51.568;6.998;2023-06-19T09:54:07;4.65;;;2.65;;
3141;SDS011;1581;51.568;6.998;2023-06-19T09:56:37;3.35;;;2.50;;
3141;SDS011;1581;51.568;6.998;2023-06-19T09:59:07;3.67;;;2.83;;
3141;SDS011;1581;51.568;6.998;2023-06-19T10:01:36;6.97;;;2.83;;
3141;SDS011;1581;51.568;6.998;2023-06-19T10:04:07;6.13;;;2.80;;
3141;SDS011;1581;51.568;6.998;2023-06-19T10:06:42;3.10;;;2.50;;
3141;SDS011;1581;51.568;6.998;2023-06-19T10:09:13;3.95;;;2.88;;
3141;SDS011;1581;51.568;6.998;2023-06-19T10:11:48;9.10;;;3.72;;
3141;SDS011;1581;51.568;6.998;2023-06-19T10:14:18;6.40;;;3.42;;
3141;SDS011;1581;51.568;6.998;2023-06-19T10:16:50;4.70;;;2.85;;
3141;SDS011;1581;51.568;6.998;2023-06-19T10:19:20;4.25;;;3.60;;
3141;SDS011;1581;51.568;6.998;2023-06-19T10:21:49;3.70;;;3.33;;
3141;SDS011;1581;51.568;6.998;2023-06-19T10:24:20;5.38;;;3.30;;
3141;SDS011;1581;51.568;6.998;2023-06-19T10:26:59;5.43;;;3.90;;
3141;SDS011;1581;51.568;6.998;2023-06-19T10:29:37;2.97;;;2.75;;
3141;SDS011;1581;51.568;6.998;2023-06-19T10:32:07;4.78;;;2.80;;
3141;SDS011;1581;51.568;6.998;2023-06-19T10:34:36;5.22;;;3.65;;
3141;SDS011;1581;51.568;6.998;2023-06-19T10:37:04;4.15;;;3.75;;
3141;SDS011;1581;51.568;6.998;2023-06-19T10:39:33;4.68;;;3.72;;
3141;SDS011;1581;51.568;6.998;2023-06-19T10:42:04;5.03;;;4.20;;
3141;SDS011;1581;51.568;6.998;2023-06-19T10:44:34;3.80;;;3.50;;
3141;SDS011;1581;51.568;6.998;2023-06-19T10:47:03;6.07;;;3.60;;
3141;SDS011;1581;51.568;6.998;2023-06-19T10:49:33;5.82;;;3.60;;
3141;SDS011;1581;51.568;6.998;2023-06-19T10:52:04;3.97;;;2.90;;
3141;SDS011;1581;51.568;6.998;2023-06-19T10:54:34;7.45;;;3.85;;
3141;SDS011;1581;51.568;6.998;2023-06-19T10:57:04;8.35;;;3.67;;
3141;SDS011;1581;51.568;6.998;2023-06-19T10:59:33;5.28;;;3.38;;
3141;SDS011;1581;51.568;6.998;2023-06-19T11:02:06;16.00;;;3.40;;
3141;SDS011;1581;51.568;6.998;2023-06-19T11:04:38;4.05;;;3.65;;
3141;SDS011;1581;51.568;6.998;2023-06-19T11:07:08;3.80;;;3.38;;
3141;SDS011;1581;51.568;6.998;2023-06-19T11:09:37;4.80;;;3.28;;
3141;SDS011;1581;51.568;6.998;2023-06-19T11:12:06;3.50;;;3.20;;
3141;SDS011;1581;51.568;6.998;2023-06-19T11:14:35;4.70;;;4.13;;
3141;SDS011;1581;51.568;6.998;2023-06-19T11:17:05;4.07;;;3.45;;
3141;SDS011;1581;51.568;6.998;2023-06-19T11:19:35;3.83;;;3.53;;
3141;SDS011;1581;51.568;6.998;2023-06-19T11:22:10;10.00;;;5.53;;
3141;SDS011;1581;51.568;6.998;2023-06-19T11:24:43;5.47;;;3.67;;
3141;SDS011;1581;51.568;6.998;2023-06-19T11:27:17;7.85;;;4.38;;
3141;SDS011;1581;51.568;6.998;2023-06-19T11:29:54;4.97;;;4.30;;
3141;SDS011;1581;51.568;6.998;2023-06-19T11:32:30;5.57;;;3.92;;
3141;SDS011;1581;51.568;6.998;2023-06-19T11:35:06;5.28;;;4.18;;
3141;SDS011;1581;51.568;6.998;2023-06-19T11:37:40;4.10;;;3.35;;
3141;SDS011;1581;51.568;6.998;2023-06-19T11:40:10;7.45;;;4.35;;
3141;SDS011;1581;51.568;6.998;2023-06-19T11:42:51;4.45;;;3.33;;
3141;SDS011;1581;51.568;6.998;2023-06-19T11:45:20;4.07;;;3.60;;
3141;SDS011;1581;51.568;6.998;2023-06-19T11:47:49;6.93;;;4.13;;
3141;SDS011;1581;51.568;6.998;2023-06-19T11:50:19;4.70;;;4.20;;
3141;SDS011;1581;51.568;6.998;2023-06-19T11:52:54;11.73;;;4.30;;
3141;SDS011;1581;51.568;6.998;2023-06-19T11:55:25;4.35;;;3.95;;
3141;SDS011;1581;51.568;6.998;2023-06-19T11:57:53;11.05;;;4.75;;
3141;SDS011;1581;51.568;6.998;2023-06-19T12:00:22;4.57;;;3.90;;
3141;SDS011;1581;51.568;6.998;2023-06-19T12:02:50;6.38;;;4.68;;
3141;SDS011;1581;51.568;6.998;2023-06-19T12:05:20;6.40;;;4.60;;
3141;SDS011;1581;51.568;6.998;2023-06-19T12:07:51;5.18;;;3.92;;
3141;SDS011;1581;51.568;6.998;2023-06-19T12:10:22;6.32;;;4.75;;
3141;SDS011;1581;51.568;6.998;2023-06-19T12:12:51;7.78;;;4.47;;
3141;SDS011;1581;51.568;6.998;2023-06-19T12:15:20;5.85;;;5.07;;
3141;SDS011;1581;51.568;6.998;2023-06-19T12:17:50;8.73;;;4.78;;
3141;SDS011;1581;51.568;6.998;2023-06-19T12:20:20;8.32;;;4.55;;
3141;SDS011;1581;51.568;6.998;2023-06-19T12:25:21;7.30;;;4.97;;
3141;SDS011;1581;51.568;6.998;2023-06-19T12:27:55;5.82;;;4.22;;
3141;SDS011;1581;51.568;6.998;2023-06-19T12:30:24;9.65;;;4.40;;
3141;SDS011;1581;51.568;6.998;2023-06-19T12:32:55;8.68;;;5.03;;
3141;SDS011;1581;51.568;6.998;2023-06-19T12:35:25;9.85;;;4.60;;
3141;SDS011;1581;51.568;6.998;2023-06-19T12:37:54;6.00;;;4.47;;
3141;SDS011;1581;51.568;6.998;2023-06-19T12:40:23;8.00;;;4.32;;
3141;SDS011;1581;51.568;6.998;2023-06-19T12:42:56;5.43;;;4.40;;
3141;SDS011;1581;51.568;6.998;2023-06-19T12:45:24;4.25;;;3.85;;
3141;SDS011;1581;51.568;6.998;2023-06-19T12:47:53;12.13;;;4.80;;
3141;SDS011;1581;51.568;6.998;2023-06-19T12:50:23;4.30;;;3.92;;
3141;SDS011;1581;51.568;6.998;2023-06-19T12:52:52;4.90;;;4.40;;
3141;SDS011;1581;51.568;6.998;2023-06-19T12:55:21;5.45;;;4.05;;
3141;SDS011;1581;51.568;6.998;2023-06-19T12:57:49;6.82;;;4.25;;
3141;SDS011;1581;51.568;6.998;2023-06-19T13:00:18;4.88;;;3.95;;
3141;SDS011;1581;51.568;6.998;2023-06-19T13:02:47;5.28;;;4.20;;
3141;SDS011;1581;51.568;6.998;2023-06-19T13:05:16;6.85;;;4.55;;
3141;SDS011;1581;51.568;6.998;2023-06-19T13:07:46;13.50;;;4.10;;
3141;SDS011;1581;51.568;6.998;2023-06-19T13:10:14;6.30;;;3.85;;
3141;SDS011;1581;51.568;6.998;2023-06-19T13:12:43;8.18;;;4.40;;
3141;SDS011;1581;51.568;6.998;2023-06-19T13:15:11;5.15;;;4.45;;
3141;SDS011;1581;51.568;6.998;2023-06-19T13:17:40;4.55;;;4.07;;
3141;SDS011;1581;51.568;6.998;2023-06-19T13:20:08;4.80;;;4.10;;
3141;SDS011;1581;51.568;6.998;2023-06-19T13:22:38;5.25;;;4.75;;
3141;SDS011;1581;51.568;6.998;2023-06-19T13:25:11;4.80;;;3.42;;
3141;SDS011;1581;51.568;6.998;2023-06-19T13:27:45;14.63;;;4.22;;
3141;SDS011;1581;51.568;6.998;2023-06-19T13:30:14;10.00;;;4.03;;
3141;SDS011;1581;51.568;6.998;2023-06-19T13:32:43;5.03;;;3.75;;
3141;SDS011;1581;51.568;6.998;2023-06-19T13:35:12;5.88;;;3.55;;
3141;SDS011;1581;51.568;6.998;2023-06-19T13:37:41;6.63;;;4.00;;
3141;SDS011;1581;51.568;6.998;2023-06-19T13:40:11;4.43;;;4.03;;
3141;SDS011;1581;51.568;6.998;2023-06-19T13:42:40;7.70;;;4.32;;
3141;SDS011;1581;51.568;6.998;2023-06-19T13:45:09;5.22;;;4.07;;
3141;SDS011;1581;51.568;6.998;2023-06-19T13:47:38;4.00;;;3.75;;
3141;SDS011;1581;51.568;6.998;2023-06-19T13:50:07;3.60;;;3.30;;
3141;SDS011;1581;51.568;6.998;2023-06-19T13:52:39;9.18;;;4.10;;
3141;SDS011;1581;51.568;6.998;2023-06-19T13:55:08;4.45;;;3.80;;
3141;SDS011;1581;51.568;6.998;2023-06-19T13:57:39;3.58;;;3.28;;
3141;SDS011;1581;51.568;6.998;2023-06-19T14:00:10;4.20;;;3.85;;
3141;SDS011;1581;51.568;6.998;2023-06-19T14:02:39;4.95;;;4.10;;
3141;SDS011;1581;51.568;6.998;2023-06-19T14:05:08;4.03;;;3.72;;
3141;SDS011;1581;51.568;6.998;2023-06-19T14:07:40;4.63;;;3.78;;
3141;SDS011;1581;51.568;6.998;2023-06-19T14:10:11;4.85;;;4.28;;
3141;SDS011;1581;51.568;6.998;2023-06-19T14:12:41;8.25;;;4.85;;
3141;SDS011;1581;51.568;6.998;2023-06-19T14:15:10;8.25;;;3.67;;
3141;SDS011;1581;51.568;6.998;2023-06-19T14:17:39;5.07;;;4.10;;
3141;SDS011;1581;51.568;6.998;2023-06-19T14:20:08;4.03;;;3.60;;
3141;SDS011;1581;51.568;6.998;2023-06-19T14:22:38;3.75;;;3.40;;
3141;SDS011;1581;51.568;6.998;2023-06-19T14:25:06;5.82;;;3.60;;
3141;SDS011;1581;51.568;6.998;2023-06-19T14:27:38;3.95;;;3.55;;
3141;SDS011;1581;51.568;6.998;2023-06-19T14:30:07;10.52;;;3.78;;
3141;SDS011;1581;51.568;6.998;2023-06-19T14:32:36;3.78;;;3.47;;
3141;SDS011;1581;51.568;6.998;2023-06-19T14:35:06;4.35;;;3.78;;
3141;SDS011;1581;51.568;6.998;2023-06-19T14:37:39;7.28;;;3.40;;
3141;SDS011;1581;51.568;6.998;2023-06-19T14:40:12;4.85;;;4.00;;
3141;SDS011;1581;51.568;6.998;2023-06-19T14:42:48;7.22;;;4.28;;
3141;SDS011;1581;51.568;6.998;2023-06-19T14:45:20;4.32;;;3.92;;
3141;SDS011;1581;51.568;6.998;2023-06-19T14:47:53;6.35;;;4.30;;
3141;SDS011;1581;51.568;6.998;2023-06-19T14:50:24;4.63;;;4.20;;
3141;SDS011;1581;51.568;6.998;2023-06-19T14:52:54;6.65;;;4.45;;
3141;SDS011;1581;51.568;6.998;2023-06-19T14:55:26;9.30;;;4.07;;
3141;SDS011;1581;51.568;6.998;2023-06-19T14:58:08;5.22;;;3.75;;
3141;SDS011;1581;51.568;6.998;2023-06-19T15:00:42;4.68;;;3.72;;
3141;SDS011;1581;51.568;6.998;2023-06-19T15:03:10;4.43;;;3.83;;
3141;SDS011;1581;51.568;6.998;2023-06-19T15:05:39;5.75;;;3.70;;
3141;SDS011;1581;51.568;6.998;2023-06-19T15:08:07;5.30;;;4.10;;
3141;SDS011;1581;51.568;6.998;2023-06-19T15:10:36;7.10;;;4.38;;
3141;SDS011;1581;51.568;6.998;2023-06-19T15:13:08;4.07;;;3.67;;
3141;SDS011;1581;51.568;6.998;2023-06-19T15:15:41;5.53;;;3.92;;
3141;SDS011;1581;51.568;6.998;2023-06-19T15:18:11;6.97;;;3.67;;
3141;SDS011;1581;51.568;6.998;2023-06-19T15:20:44;11.15;;;4.20;;
3141;SDS011;1581;51.568;6.998;2023-06-19T15:23:14;4.38;;;3.97;;
3141;SDS011;1581;51.568;6.998;2023-06-19T15:25:43;7.32;;;3.95;;
3141;SDS011;1581;51.568;6.998;2023-06-19T15:28:14;4.35;;;3.80;;
3141;SDS011;1581;51.568;6.998;2023-06-19T15:30:43;3.80;;;3.50;;
3141;SDS011;1581;51.568;6.998;2023-06-19T15:33:12;4.45;;;4.05;;
3141;SDS011;1581;51.568;6.998;2023-06-19T15:35:40;6.13;;;3.60;;
3141;SDS011;1581;51.568;6.998;2023-06-19T15:38:10;7.85;;;3.42;;
3141;SDS011;1581;51.568;6.998;2023-06-19T15:40:39;8.63;;;4.32;;
3141;SDS011;1581;51.568;6.998;2023-06-19T15:43:09;4.88;;;3.80;;